Time;durP1;ratioP1;P1;durP2;ratioP2;P2;SDS_P1;SDS_P2;PMS_P1;PMS_P2;Temp;Humidity;BMP_temperature;BMP_pressure;BME280_temperature;BME280_humidity;BME280_pressure;Samples;Min_cycle;Max_cycle;Signal;HPM_P1;HPM_P2
2022/09/25 00:00:30;;;;;;;15.00;2.08;;;12.70;99.90;;;;;;6215624;23;20032;-81
2022/09/25 00:02:56;;;;;;;15.38;1.77;;;12.80;99.90;;;;;;6242700;23;20016;-83
2022/09/25 00:05:22;;;;;;;8.48;1.40;;;12.80;99.90;;;;;;6215506;23;20099;-80
2022/09/25 00:07:47;;;;;;;18.10;2.60;;;12.80;99.90;;;;;;6217544;23;20035;-81
2022/09/25 00:10:13;;;;;;;7.43;1.67;;;12.80;99.90;;;;;;6244366;23;20374;-83
2022/09/25 00:12:40;;;;;;;13.57;1.92;;;12.80;99.90;;;;;;6215397;23;20082;-81
2022/09/25 00:15:07;;;;;;;9.50;1.77;;;12.70;99.90;;;;;;6242972;23;20432;-81
2022/09/25 00:17:33;;;;;;;12.68;2.03;;;12.80;99.90;;;;;;6242948;23;20035;-83
2022/09/25 00:19:59;;;;;;;13.45;1.60;;;12.80;99.90;;;;;;6215740;23;20016;-82
2022/09/25 00:22:26;;;;;;;8.27;1.85;;;12.70;99.90;;;;;;6242715;23;20035;-82
2022/09/25 00:24:53;;;;;;;14.57;2.35;;;12.70;99.90;;;;;;6190522;23;20515;-81
2022/09/25 00:27:19;;;;;;;11.18;1.40;;;12.70;99.90;;;;;;6216424;23;20034;-82
2022/09/25 00:29:46;;;;;;;13.10;1.42;;;12.70;99.90;;;;;;6215649;23;20028;-82
2022/09/25 00:32:14;;;;;;;11.27;1.20;;;12.70;99.90;;;;;;6242419;23;20099;-80
2022/09/25 00:34:40;;;;;;;10.00;1.58;;;12.70;99.90;;;;;;6242538;23;20091;-81
2022/09/25 00:37:06;;;;;;;12.98;1.38;;;12.60;99.90;;;;;;6216008;23;20089;-82
2022/09/25 00:39:33;;;;;;;6.30;1.25;;;12.60;99.90;;;;;;6215932;23;20024;-81
2022/09/25 00:41:59;;;;;;;12.40;1.30;;;12.60;99.90;;;;;;6215165;23;20032;-82
2022/09/25 00:44:56;;;;;;;9.27;1.95;;;12.60;99.90;;;;;;6242479;23;20055;-80
2022/09/25 00:47:52;;;;;;;5.95;1.27;;;12.60;99.90;;;;;;6243149;23;20035;-82
2022/09/25 00:50:38;;;;;;;12.77;1.80;;;12.60;99.90;;;;;;6243001;23;20031;-81
2022/09/25 00:53:11;;;;;;;8.73;2.22;;;12.50;99.90;;;;;;6242458;23;20020;-80
2022/09/25 00:55:38;;;;;;;11.07;1.10;;;12.50;99.90;;;;;;6242168;23;20020;-81
2022/09/25 00:58:06;;;;;;;7.93;1.20;;;12.50;99.90;;;;;;6215687;23;20024;-81
2022/09/25 01:00:32;;;;;;;14.60;1.48;;;12.50;99.90;;;;;;6215373;23;20028;-81
2022/09/25 01:02:58;;;;;;;10.38;2.50;;;12.50;99.90;;;;;;6216752;23;20336;-80
2022/09/25 01:05:31;;;;;;;10.40;1.33;;;12.60;99.90;;;;;;6191359;23;20118;-81
2022/09/25 01:08:00;;;;;;;9.50;1.85;;;12.60;99.90;;;;;;6243284;23;20024;-82
2022/09/25 01:10:27;;;;;;;8.00;2.65;;;12.70;99.90;;;;;;6242606;23;20081;-81
2022/09/25 01:12:55;;;;;;;10.52;1.75;;;12.70;99.90;;;;;;6242496;23;20357;-79
2022/09/25 01:15:47;;;;;;;6.90;1.58;;;12.70;99.90;;;;;;6242650;23;20022;-81
2022/09/25 01:18:45;;;;;;;12.60;1.60;;;12.70;99.90;;;;;;6216219;23;20351;-81
2022/09/25 01:21:27;;;;;;;8.18;1.13;;;12.70;99.90;;;;;;6215794;23;20562;-80
2022/09/25 01:24:04;;;;;;;5.97;1.10;;;12.70;99.90;;;;;;6243805;23;20024;-81
2022/09/25 01:26:58;;;;;;;14.10;2.17;;;12.70;99.90;;;;;;6244057;23;20448;-83
2022/09/25 01:29:34;;;;;;;9.77;1.20;;;12.60;99.90;;;;;;6249169;23;20051;-80
2022/09/25 01:32:13;;;;;;;10.05;1.25;;;12.60;99.90;;;;;;6221681;23;20020;-80
2022/09/25 01:34:41;;;;;;;13.65;1.58;;;12.70;99.90;;;;;;6251732;23;20024;-81
2022/09/25 01:37:19;;;;;;;10.68;2.28;;;12.70;99.90;;;;;;6220450;23;20371;-80
2022/09/25 01:39:55;;;;;;;13.15;1.77;;;12.60;99.90;;;;;;6196291;23;20024;-80
2022/09/25 01:42:28;;;;;;;14.50;1.65;;;12.60;99.90;;;;;;6244803;23;20452;-80
2022/09/25 01:45:28;;;;;;;11.07;1.90;;;12.60;99.90;;;;;;6244669;23;20329;-79
2022/09/25 01:47:56;;;;;;;10.40;1.30;;;12.60;99.90;;;;;;6244365;23;20348;-79
2022/09/25 01:50:41;;;;;;;5.35;1.15;;;12.50;99.90;;;;;;6244212;23;20032;-80
2022/09/25 01:53:14;;;;;;;7.78;1.40;;;12.50;99.90;;;;;;6244316;23;20024;-81
2022/09/25 01:55:45;;;;;;;10.15;1.90;;;12.50;99.90;;;;;;6245072;23;20548;-80
2022/09/25 01:58:15;;;;;;;13.32;2.15;;;12.40;99.90;;;;;;6193370;23;20030;-80
2022/09/25 02:00:49;;;;;;;12.20;1.98;;;12.40;99.90;;;;;;6244317;23;20521;-80
2022/09/25 02:03:45;;;;;;;13.32;1.42;;;12.40;99.90;;;;;;6244366;23;20031;-80
2022/09/25 02:06:18;;;;;;;9.95;1.60;;;12.40;99.90;;;;;;6241170;23;20082;-80
2022/09/25 02:08:52;;;;;;;10.07;1.33;;;12.30;99.90;;;;;;6217560;23;20028;-80
2022/09/25 02:11:19;;;;;;;7.28;1.08;;;12.30;99.90;;;;;;6243901;23;20356;-80
2022/09/25 02:14:05;;;;;;;5.57;1.00;;;12.30;99.90;;;;;;6216931;23;20028;-80
2022/09/25 02:16:37;;;;;;;6.18;1.15;;;12.20;99.90;;;;;;6243721;23;20099;-80
2022/09/25 02:22:16;;;;;;;6.97;1.13;;;12.20;99.90;;;;;;6246045;23;20028;-80
2022/09/25 02:25:05;;;;;;;7.97;1.58;;;12.20;99.90;;;;;;6243914;23;20070;-80
2022/09/25 02:27:32;;;;;;;6.28;1.13;;;12.10;99.90;;;;;;6216716;23;20028;-81
2022/09/25 02:29:59;;;;;;;8.65;0.90;;;12.10;99.90;;;;;;6243512;23;20035;-80
2022/09/25 02:32:29;;;;;;;6.38;0.90;;;12.10;99.90;;;;;;6243561;23;20082;-80
2022/09/25 02:34:56;;;;;;;4.60;1.10;;;12.10;99.90;;;;;;6244090;23;20027;-80
2022/09/25 02:37:22;;;;;;;5.88;1.45;;;12.10;99.90;;;;;;6243686;23;20028;-81
2022/09/25 02:39:54;;;;;;;8.55;1.10;;;12.00;99.90;;;;;;6243631;23;20019;-78
2022/09/25 02:42:41;;;;;;;8.38;1.20;;;12.00;99.90;;;;;;6244425;23;20325;-81
2022/09/25 02:45:27;;;;;;;9.93;1.00;;;12.00;99.90;;;;;;6216293;23;20094;-81
2022/09/25 02:48:07;;;;;;;12.43;1.67;;;11.90;99.90;;;;;;6216473;23;20031;-79
2022/09/25 02:51:04;;;;;;;9.02;1.13;;;11.90;99.90;;;;;;6243304;23;20031;-80
2022/09/25 02:53:32;;;;;;;8.82;1.25;;;12.00;99.90;;;;;;6243557;23;20034;-79
2022/09/25 02:56:01;;;;;;;12.82;1.25;;;12.00;99.90;;;;;;6243374;23;20024;-80
2022/09/25 02:58:51;;;;;;;7.25;1.00;;;11.90;99.90;;;;;;6216521;23;20039;-81
2022/09/25 03:01:19;;;;;;;10.30;1.70;;;11.90;99.90;;;;;;6243800;23;20020;-81
2022/09/25 03:03:48;;;;;;;8.63;1.23;;;11.90;99.90;;;;;;6244688;23;20344;-82
2022/09/25 03:06:14;;;;;;;11.10;1.30;;;11.90;99.90;;;;;;6243584;23;20016;-80
2022/09/25 03:08:45;;;;;;;7.90;1.00;;;11.90;99.90;;;;;;6216150;23;20038;-81
2022/09/25 03:11:14;;;;;;;14.48;1.50;;;11.90;99.90;;;;;;6243214;23;20020;-81
2022/09/25 03:13:41;;;;;;;5.60;1.45;;;11.90;99.90;;;;;;6215630;23;20027;-80
2022/09/25 03:16:30;;;;;;;10.88;1.40;;;11.90;99.90;;;;;;6216797;23;20024;-81
2022/09/25 03:18:56;;;;;;;8.88;1.05;;;11.90;99.90;;;;;;6191565;23;20530;-80
2022/09/25 03:21:22;;;;;;;6.85;0.90;;;11.90;99.90;;;;;;6245699;23;20024;-82
2022/09/25 03:23:48;;;;;;;3.70;0.95;;;11.90;99.90;;;;;;6247005;23;20024;-80
2022/09/25 03:26:14;;;;;;;7.63;1.67;;;11.90;99.90;;;;;;6219375;23;20024;-83
2022/09/25 03:28:40;;;;;;;10.85;1.50;;;12.00;99.90;;;;;;6243849;23;20035;-82
2022/09/25 03:31:09;;;;;;;9.48;1.30;;;12.00;99.90;;;;;;6243031;23;20032;-81
2022/09/25 03:33:41;;;;;;;15.85;2.78;;;12.00;99.90;;;;;;6243576;23;20106;-79
2022/09/25 03:36:10;;;;;;;5.18;0.95;;;12.00;99.90;;;;;;6243439;23;20048;-79
2022/09/25 03:38:37;;;;;;;6.93;1.92;;;12.00;99.90;;;;;;6243107;23;20110;-81
2022/09/25 03:41:08;;;;;;;6.93;1.02;;;12.00;99.90;;;;;;6217459;23;20031;-80
2022/09/25 03:43:39;;;;;;;11.48;1.67;;;11.90;99.90;;;;;;6245199;23;20464;-81
2022/09/25 03:46:07;;;;;;;10.88;2.08;;;11.90;99.90;;;;;;6243409;23;20016;-79
2022/09/25 03:48:34;;;;;;;7.50;1.63;;;11.90;99.90;;;;;;6216023;23;20024;-81
2022/09/25 03:51:01;;;;;;;9.57;1.55;;;11.90;99.90;;;;;;6242952;23;20039;-82
2022/09/25 03:53:30;;;;;;;6.72;1.20;;;11.90;99.90;;;;;;6216957;23;20020;-81
2022/09/25 03:55:56;;;;;;;7.93;1.05;;;11.90;99.90;;;;;;6240704;23;20324;-80
2022/09/25 03:58:22;;;;;;;12.48;2.63;;;12.00;99.90;;;;;;6215558;23;20074;-79
2022/09/25 04:00:48;;;;;;;9.40;1.33;;;12.00;99.90;;;;;;6243904;23;20035;-79
2022/09/25 04:03:15;;;;;;;9.95;1.58;;;12.00;99.90;;;;;;6241556;23;20083;-79
2022/09/25 04:05:42;;;;;;;7.47;1.00;;;12.00;99.90;;;;;;6242573;23;20461;-79
2022/09/25 04:08:08;;;;;;;7.55;1.10;;;12.00;99.90;;;;;;6242521;23;20020;-79
2022/09/25 04:10:37;;;;;;;6.13;1.05;;;12.00;99.90;;;;;;6242818;23;20024;-80
2022/09/25 04:13:09;;;;;;;7.85;1.08;;;12.00;99.90;;;;;;6242585;23;20094;-80
2022/09/25 04:15:35;;;;;;;10.88;1.65;;;12.00;99.90;;;;;;6242484;23;20020;-80
2022/09/25 04:18:01;;;;;;;9.32;1.25;;;12.10;99.90;;;;;;6215735;23;20038;-81
2022/09/25 04:20:27;;;;;;;7.20;1.58;;;12.10;99.90;;;;;;6216345;23;20030;-80
2022/09/25 04:22:53;;;;;;;6.82;0.90;;;12.10;99.90;;;;;;6216671;23;20356;-80
2022/09/25 04:25:20;;;;;;;8.77;1.15;;;12.10;99.90;;;;;;6215291;23;20020;-80
2022/09/25 04:27:48;;;;;;;8.93;1.40;;;12.10;99.90;;;;;;6242901;23;20028;-80
2022/09/25 04:30:14;;;;;;;5.85;1.48;;;12.10;99.90;;;;;;6242480;23;20020;-80
2022/09/25 04:35:24;;;;;;;9.88;1.45;;;11.90;99.90;;;;;;6215770;23;20109;-81
2022/09/25 04:37:50;;;;;;;9.45;1.10;;;11.90;99.90;;;;;;6216128;23;20020;-82
2022/09/25 04:40:16;;;;;;;8.35;1.02;;;11.90;99.90;;;;;;6242731;23;20535;-79
2022/09/25 04:42:42;;;;;;;6.18;1.08;;;11.90;99.90;;;;;;6216009;23;20035;-79
2022/09/25 04:45:08;;;;;;;6.57;1.25;;;11.80;99.90;;;;;;6242536;23;20020;-80
2022/09/25 04:47:34;;;;;;;9.38;1.20;;;11.80;99.90;;;;;;6242905;23;20024;-79
2022/09/25 04:50:00;;;;;;;6.30;1.00;;;11.80;99.90;;;;;;6243226;23;20017;-79
2022/09/25 04:52:27;;;;;;;8.00;1.80;;;11.80;99.90;;;;;;6242755;23;20027;-79
2022/09/25 04:54:53;;;;;;;6.53;1.30;;;11.70;99.90;;;;;;6242454;23;20024;-79
2022/09/25 04:57:20;;;;;;;7.88;1.80;;;11.70;99.90;;;;;;6215212;23;20024;-80
2022/09/25 04:59:49;;;;;;;5.95;1.00;;;11.60;99.90;;;;;;6240463;23;20027;-81
2022/09/25 05:02:15;;;;;;;7.82;1.00;;;11.60;99.90;;;;;;6242608;23;20054;-80
2022/09/25 05:04:41;;;;;;;6.25;0.93;;;11.60;99.90;;;;;;6242693;23;20024;-79
2022/09/25 05:07:07;;;;;;;8.85;1.40;;;11.50;99.90;;;;;;6244043;23;20079;-79
2022/09/25 05:09:33;;;;;;;5.47;1.10;;;11.50;99.90;;;;;;6247724;23;20051;-79
2022/09/25 05:11:59;;;;;;;11.10;1.00;;;11.50;99.90;;;;;;6216987;23;20024;-79
2022/09/25 05:14:25;;;;;;;9.52;1.27;;;11.50;99.90;;;;;;6217640;23;20024;-81
2022/09/25 05:16:51;;;;;;;8.07;1.13;;;11.50;99.90;;;;;;6217991;23;20062;-79
2022/09/25 05:19:17;;;;;;;8.00;1.20;;;11.40;99.90;;;;;;6244981;23;20090;-81
2022/09/25 05:21:43;;;;;;;7.68;1.08;;;11.40;99.90;;;;;;6217687;23;20387;-80
2022/09/25 05:24:09;;;;;;;6.70;1.35;;;11.40;99.90;;;;;;6244891;23;20028;-75
2022/09/25 05:26:36;;;;;;;6.68;1.10;;;11.30;99.90;;;;;;6244614;23;20066;-80
2022/09/25 05:29:03;;;;;;;12.07;2.10;;;11.30;99.90;;;;;;6244781;23;20031;-79
2022/09/25 05:31:31;;;;;;;11.80;1.00;;;11.30;99.90;;;;;;6245678;23;20495;-79
2022/09/25 05:33:56;;;;;;;9.20;1.25;;;11.20;99.90;;;;;;6218011;23;20101;-78
2022/09/25 05:36:23;;;;;;;8.43;1.85;;;11.20;99.90;;;;;;6245390;23;20119;-78
2022/09/25 05:38:48;;;;;;;7.13;1.20;;;11.10;99.90;;;;;;6218179;23;20023;-78
2022/09/25 05:41:17;;;;;;;9.43;1.10;;;11.10;99.90;;;;;;6244199;23;20458;-80
2022/09/25 05:43:49;;;;;;;3.63;1.23;;;11.10;99.90;;;;;;6244297;23;20343;-80
2022/09/25 05:46:15;;;;;;;5.65;0.90;;;11.00;99.90;;;;;;6244269;23;20104;-78
2022/09/25 05:48:41;;;;;;;7.57;0.70;;;11.00;99.90;;;;;;6217204;23;20078;-81
2022/09/25 05:51:08;;;;;;;11.23;1.30;;;11.00;99.90;;;;;;6244650;23;20031;-80
2022/09/25 05:53:34;;;;;;;8.23;1.15;;;11.00;99.90;;;;;;6217079;23;20028;-79
2022/09/25 05:56:02;;;;;;;6.18;0.82;;;10.90;99.90;;;;;;6217132;23;20069;-79
2022/09/25 05:58:30;;;;;;;7.85;1.20;;;11.00;99.90;;;;;;6245134;23;20039;-80
2022/09/25 06:01:02;;;;;;;7.88;1.23;;;11.00;99.90;;;;;;6244118;23;20059;-79
2022/09/25 06:03:28;;;;;;;6.40;0.95;;;11.00;99.90;;;;;;6246835;23;20024;-80
2022/09/25 06:05:56;;;;;;;10.13;2.03;;;11.00;99.90;;;;;;6217734;23;20027;-79
2022/09/25 06:08:21;;;;;;;5.07;0.80;;;11.00;99.90;;;;;;6247474;23;20028;-81
2022/09/25 06:10:53;;;;;;;9.35;0.95;;;11.00;99.90;;;;;;6252182;23;20055;-81
2022/09/25 06:13:21;;;;;;;7.60;1.02;;;11.00;99.90;;;;;;6225328;23;20028;-81
2022/09/25 06:15:49;;;;;;;6.10;1.13;;;11.00;99.90;;;;;;6221621;23;20151;-82
2022/09/25 06:18:15;;;;;;;6.15;0.77;;;11.10;99.90;;;;;;6245687;23;20044;-85
2022/09/25 06:20:41;;;;;;;4.43;0.90;;;11.00;99.90;;;;;;6249509;23;20024;-84
2022/09/25 06:23:07;;;;;;;4.25;0.70;;;11.10;99.90;;;;;;6245926;23;20477;-85
2022/09/25 06:25:33;;;;;;;6.35;1.00;;;11.10;99.90;;;;;;6245418;23;20012;-82
2022/09/25 06:28:00;;;;;;;6.95;1.35;;;11.10;99.90;;;;;;6248751;23;20051;-81
2022/09/25 06:30:33;;;;;;;6.70;1.40;;;11.20;99.90;;;;;;6246023;23;20051;-82
2022/09/25 06:33:07;;;;;;;9.45;1.98;;;11.40;99.90;;;;;;6249726;23;20091;-80
2022/09/25 06:35:35;;;;;;;7.32;1.92;;;11.60;99.90;;;;;;6248204;23;20062;-84
2022/09/25 06:38:03;;;;;;;11.15;1.83;;;11.70;99.90;;;;;;6244816;23;20021;-83
2022/09/25 06:40:30;;;;;;;6.47;1.10;;;11.80;99.90;;;;;;6244603;23;20730;-81
2022/09/25 06:42:57;;;;;;;9.75;1.20;;;11.90;99.90;;;;;;6244317;23;20024;-82
2022/09/25 06:45:25;;;;;;;7.97;0.93;;;12.00;99.90;;;;;;6217273;23;20026;-81
2022/09/25 06:47:56;;;;;;;3.40;0.60;;;12.10;99.90;;;;;;6243884;23;20020;-81
2022/09/25 06:50:30;;;;;;;7.15;1.00;;;12.20;99.90;;;;;;6243758;23;20016;-83
2022/09/25 06:53:05;;;;;;;6.50;1.00;;;12.20;99.90;;;;;;6191763;23;20471;-81
2022/09/25 06:55:31;;;;;;;6.95;1.42;;;12.20;99.90;;;;;;6243732;23;20099;-84
2022/09/25 06:57:58;;;;;;;5.00;1.20;;;12.20;99.90;;;;;;6216357;23;20058;-82
2022/09/25 07:00:24;;;;;;;6.75;1.02;;;12.20;99.90;;;;;;6243094;23;20472;-84
2022/09/25 07:05:34;;;;;;;7.35;2.00;;;12.20;99.90;;;;;;6216072;23;20107;-83
2022/09/25 07:08:04;;;;;;;8.30;0.80;;;12.40;99.90;;;;;;6215241;23;20441;-81
2022/09/25 07:10:30;;;;;;;5.65;0.95;;;12.60;99.90;;;;;;6242296;23;20113;-82
2022/09/25 07:12:55;;;;;;;11.60;0.98;;;12.90;99.90;;;;;;6221255;23;20028;-84
2022/09/25 07:15:21;;;;;;;8.07;1.60;;;13.20;99.90;;;;;;6228838;23;20020;-82
2022/09/25 07:17:48;;;;;;;7.15;0.77;;;13.30;99.90;;;;;;6258040;23;20054;-84
2022/09/25 07:20:14;;;;;;;6.05;0.85;;;13.40;99.90;;;;;;6233753;23;20020;-86
2022/09/25 07:22:41;;;;;;;6.88;0.90;;;13.50;99.90;;;;;;6255969;23;20028;-83
2022/09/25 07:25:09;;;;;;;12.07;1.67;;;13.50;99.90;;;;;;6249633;23;20030;-79
2022/09/25 07:27:35;;;;;;;6.15;1.08;;;13.60;99.90;;;;;;6224303;23;20452;-81
2022/09/25 07:30:02;;;;;;;10.98;1.80;;;13.80;99.90;;;;;;6222305;23;20031;-84
2022/09/25 07:32:28;;;;;;;4.40;0.90;;;14.00;99.90;;;;;;6249789;23;20435;-80
2022/09/25 07:34:54;;;;;;;9.43;1.33;;;14.10;99.90;;;;;;6220177;23;20075;-85
2022/09/25 07:37:20;;;;;;;8.85;1.55;;;14.30;99.90;;;;;;6247470;23;20324;-84
2022/09/25 07:39:46;;;;;;;9.18;1.65;;;14.30;99.90;;;;;;6192983;23;20068;-78
2022/09/25 07:42:12;;;;;;;6.05;1.10;;;14.40;99.90;;;;;;6216213;23;20031;-79
2022/09/25 07:44:38;;;;;;;8.25;1.58;;;14.50;99.90;;;;;;6245166;23;20032;-79
2022/09/25 07:47:06;;;;;;;4.28;0.88;;;14.70;99.90;;;;;;6246200;23;20336;-82
2022/09/25 07:49:33;;;;;;;2.42;0.70;;;14.70;99.90;;;;;;6245671;23;20027;-83
2022/09/25 07:52:00;;;;;;;7.45;1.20;;;14.60;99.90;;;;;;6247419;23;20050;-78
2022/09/25 07:54:27;;;;;;;4.97;0.77;;;14.70;99.90;;;;;;6245278;23;20090;-80
2022/09/25 07:56:53;;;;;;;4.50;0.70;;;14.80;99.90;;;;;;6244406;23;20090;-83
2022/09/25 07:59:19;;;;;;;3.42;0.50;;;15.00;99.90;;;;;;6191471;23;20108;-79
2022/09/25 08:01:45;;;;;;;3.25;0.55;;;14.90;99.90;;;;;;6213752;23;20055;-81
2022/09/25 08:04:11;;;;;;;6.15;1.00;;;14.80;99.90;;;;;;6240597;23;20032;-79
2022/09/25 08:06:37;;;;;;;4.75;0.98;;;14.80;99.90;;;;;;6235489;23;20024;-78
2022/09/25 08:09:03;;;;;;;4.13;1.50;;;14.90;99.90;;;;;;6239342;23;20127;-80
2022/09/25 08:11:30;;;;;;;7.20;1.08;;;14.80;99.90;;;;;;6242806;23;20023;-78
2022/09/25 08:13:56;;;;;;;8.02;1.52;;;14.80;99.90;;;;;;6215755;23;20503;-85
2022/09/25 08:16:22;;;;;;;6.07;1.05;;;14.90;99.90;;;;;;6214578;23;20031;-80
2022/09/25 08:18:49;;;;;;;4.63;1.00;;;14.90;99.90;;;;;;6215012;23;20039;-81
2022/09/25 08:21:17;;;;;;;7.13;1.23;;;15.00;99.90;;;;;;6242159;23;20023;-78
2022/09/25 08:23:48;;;;;;;3.58;0.68;;;15.10;99.90;;;;;;6214277;23;20089;-78
2022/09/25 08:26:17;;;;;;;5.75;1.35;;;15.10;99.90;;;;;;6240829;23;20024;-83
2022/09/25 08:28:44;;;;;;;4.95;1.02;;;15.30;99.90;;;;;;6214423;23;20024;-79
2022/09/25 08:31:13;;;;;;;4.03;0.88;;;15.50;99.90;;;;;;6213578;23;20027;-80
2022/09/25 08:33:43;;;;;;;2.72;0.60;;;15.70;99.90;;;;;;6214063;23;20028;-80
2022/09/25 08:36:09;;;;;;;4.45;0.77;;;15.90;99.90;;;;;;6241859;23;20028;-82
2022/09/25 08:38:35;;;;;;;8.43;0.65;;;15.90;99.90;;;;;;6217143;23;20020;-80
2022/09/25 08:41:08;;;;;;;5.93;0.57;;;16.00;99.90;;;;;;6242450;23;20027;-84
2022/09/25 08:43:56;;;;;;;5.65;0.52;;;16.10;99.90;;;;;;6242166;23;20078;-80
2022/09/25 08:49:15;;;;;;;4.85;0.82;;;16.00;99.90;;;;;;6241055;23;20024;-79
2022/09/25 08:51:48;;;;;;;8.13;1.60;;;16.00;99.90;;;;;;6213946;23;20585;-79
2022/09/25 08:54:26;;;;;;;7.40;1.20;;;16.00;99.90;;;;;;6188957;23;20085;-80
2022/09/25 08:57:00;;;;;;;7.63;1.30;;;16.00;99.90;;;;;;6213007;23;20082;-78
2022/09/25 08:59:48;;;;;;;7.10;1.20;;;16.00;99.90;;;;;;6240307;23;20464;-78
2022/09/25 09:02:25;;;;;;;12.65;1.20;;;16.00;99.90;;;;;;6240662;23;20063;-81
2022/09/25 09:04:57;;;;;;;8.25;1.15;;;16.00;99.90;;;;;;6240215;23;20016;-78
2022/09/25 09:07:39;;;;;;;4.53;1.20;;;16.00;99.90;;;;;;6213625;23;20034;-79
2022/09/25 09:10:26;;;;;;;6.80;1.00;;;16.00;99.90;;;;;;6240450;23;20470;-78
2022/09/25 09:12:59;;;;;;;4.30;0.82;;;16.00;99.90;;;;;;6240760;23;20020;-82
2022/09/25 09:15:44;;;;;;;5.60;0.77;;;16.10;99.90;;;;;;6214723;23;20469;-81
2022/09/25 09:18:36;;;;;;;7.35;0.60;;;16.10;99.90;;;;;;6241324;23;20429;-80
2022/09/25 09:21:07;;;;;;;2.83;0.40;;;16.00;99.90;;;;;;6214412;23;20329;-82
2022/09/25 09:23:43;;;;;;;3.50;0.57;;;16.10;99.90;;;;;;6240938;23;20024;-81
2022/09/25 09:26:23;;;;;;;2.88;0.47;;;16.20;99.90;;;;;;6213848;23;20352;-81
2022/09/25 09:28:58;;;;;;;4.20;1.10;;;16.30;99.90;;;;;;6241713;23;20403;-79
2022/09/25 09:31:24;;;;;;;5.43;0.93;;;16.60;99.90;;;;;;6209144;23;20092;-79
2022/09/25 09:34:18;;;;;;;6.18;0.70;;;16.70;99.90;;;;;;6211422;23;20499;-80
2022/09/25 09:37:11;;;;;;;4.03;1.05;;;16.70;99.90;;;;;;6184713;23;20085;-83
2022/09/25 09:40:08;;;;;;;8.88;0.90;;;16.70;99.90;;;;;;6212942;23;20318;-85
2022/09/25 09:42:55;;;;;;;3.63;1.05;;;16.60;99.90;;;;;;6212620;23;20472;-82
2022/09/25 09:45:21;;;;;;;6.55;0.85;;;16.60;99.90;;;;;;6211922;23;20151;-79
2022/09/25 09:47:58;;;;;;;5.15;0.75;;;16.50;99.90;;;;;;6213243;23;20048;-84
2022/09/25 09:50:51;;;;;;;7.15;0.73;;;16.50;99.90;;;;;;6214832;23;20024;-84
2022/09/25 09:53:17;;;;;;;6.32;1.10;;;16.30;99.90;;;;;;6219689;23;20020;-87
2022/09/25 09:55:48;;;;;;;7.05;0.90;;;16.40;99.90;;;;;;6223052;23;20027;-84
2022/09/25 09:58:29;;;;;;;6.75;0.95;;;16.40;99.90;;;;;;6216712;23;20024;-81
2022/09/25 10:00:56;;;;;;;7.85;0.93;;;16.30;99.90;;;;;;6215395;23;20080;-87
2022/09/25 10:03:26;;;;;;;9.07;0.93;;;16.40;99.90;;;;;;6214405;23;20032;-82
2022/09/25 10:05:58;;;;;;;9.25;0.90;;;16.60;99.90;;;;;;6214147;23;20025;-82
2022/09/25 10:08:24;;;;;;;7.63;1.10;;;16.60;99.90;;;;;;6212895;23;20345;-82
2022/09/25 10:10:52;;;;;;;7.85;1.05;;;16.70;99.90;;;;;;6213428;23;20077;-81
2022/09/25 10:13:33;;;;;;;14.82;1.50;;;16.70;99.90;;;;;;6211556;23;20031;-82
2022/09/25 10:16:02;;;;;;;3.42;0.50;;;16.90;99.90;;;;;;6215291;23;20025;-84
2022/09/25 10:18:36;;;;;;;5.75;0.82;;;16.90;99.90;;;;;;6217449;23;20067;-85
2022/09/25 10:21:46;;;;;;;6.07;0.80;;;17.10;99.90;;;;;;6219080;23;20025;-78
2022/09/25 10:24:50;;;;;;;4.82;0.70;;;17.30;99.90;;;;;;6217331;23;20063;-81
2022/09/25 10:27:44;;;;;;;5.30;0.90;;;17.80;99.90;;;;;;6188082;23;20029;-84
2022/09/25 10:30:10;;;;;;;4.47;0.60;;;18.40;99.90;;;;;;6215059;23;20122;-87
2022/09/25 10:32:49;;;;;;;4.13;0.73;;;18.60;99.40;;;;;;6241931;23;20341;-83
2022/09/25 10:35:22;;;;;;;4.55;0.75;;;19.20;99.40;;;;;;6246593;23;20020;-85
2022/09/25 10:37:52;;;;;;;5.60;1.17;;;19.50;98.40;;;;;;6245790;23;20030;-82
2022/09/25 10:40:36;;;;;;;6.32;1.35;;;19.60;97.30;;;;;;6217492;23;20050;-81
2022/09/25 10:43:12;;;;;;;5.00;0.50;;;19.90;96.50;;;;;;6246386;23;20024;-82
2022/09/25 10:45:39;;;;;;;8.80;1.08;;;20.30;96.70;;;;;;6222067;23;20024;-79
2022/09/25 10:51:20;;;;;;;3.15;0.80;;;20.60;93.60;;;;;;6246631;23;20028;-87
2022/09/25 10:54:07;;;;;;;3.10;0.82;;;20.40;94.70;;;;;;6222909;23;20035;-79
2022/09/25 10:56:35;;;;;;;6.43;0.70;;;20.60;93.50;;;;;;6231275;23;20012;-84
2022/09/25 10:59:18;;;;;;;3.95;0.82;;;20.40;93.70;;;;;;6262478;22;20027;-84
2022/09/25 11:01:46;;;;;;;9.80;1.35;;;20.30;94.00;;;;;;6256537;23;20032;-84
2022/09/25 11:04:33;;;;;;;5.72;0.88;;;21.20;93.70;;;;;;6217356;23;20100;-81
2022/09/25 11:07:03;;;;;;;5.22;0.80;;;21.60;93.00;;;;;;6245070;23;20440;-83
2022/09/25 11:09:31;;;;;;;4.28;0.93;;;22.10;92.40;;;;;;6219024;23;20024;-77
2022/09/25 11:12:15;;;;;;;4.07;0.50;;;22.00;91.90;;;;;;6217682;23;20440;-80
2022/09/25 11:14:56;;;;;;;5.50;0.90;;;22.70;92.30;;;;;;6223127;23;20029;-83
2022/09/25 11:17:41;;;;;;;7.30;0.75;;;23.20;90.80;;;;;;6250840;23;20061;-88
2022/09/25 11:20:15;;;;;;;4.47;0.50;;;22.90;91.10;;;;;;6229713;23;20341;-83
2022/09/25 11:22:48;;;;;;;3.95;0.50;;;23.60;90.60;;;;;;6231738;23;20105;-84
2022/09/25 11:25:21;;;;;;;5.28;1.08;;;24.70;88.10;;;;;;6254141;23;20114;-77
2022/09/25 11:28:03;;;;;;;3.60;0.70;;;24.60;85.40;;;;;;6226974;23;20095;-84
2022/09/25 11:30:38;;;;;;;9.00;1.02;;;24.70;84.30;;;;;;6245111;23;20035;-87
2022/09/25 11:33:30;;;;;;;7.78;0.95;;;25.50;85.50;;;;;;6245965;23;20021;-88
2022/09/25 11:36:04;;;;;;;3.05;0.57;;;26.30;85.20;;;;;;6245989;23;20559;-80
2022/09/25 11:41:30;;;;;;;6.82;1.30;;;26.40;79.50;;;;;;6224097;23;20035;-83
2022/09/25 11:44:17;;;;;;;6.53;0.75;;;26.40;76.40;;;;;;6249962;23;20474;-85
2022/09/25 11:46:55;;;;;;;3.67;0.70;;;26.50;73.80;;;;;;6217331;23;20032;-88
2022/09/25 11:49:33;;;;;;;5.30;0.52;;;27.30;75.20;;;;;;6247031;23;20070;-83
2022/09/25 11:52:17;;;;;;;4.93;0.60;;;27.80;67.40;;;;;;6217541;23;20058;-81
2022/09/25 11:54:58;;;;;;;5.43;1.10;;;27.90;69.10;;;;;;6217395;23;20020;-83
2022/09/25 11:57:35;;;;;;;3.15;0.55;;;28.20;68.20;;;;;;6246593;23;20085;-86
2022/09/25 12:00:30;;;;;;;5.30;0.73;;;27.60;67.30;;;;;;6193863;23;20028;-80
2022/09/25 12:03:12;;;;;;;29.30;9.75;;;28.40;65.10;;;;;;6242276;23;20164;-82
2022/09/25 12:05:48;;;;;;;7.20;2.38;;;28.30;62.50;;;;;;6243765;23;20067;-79
2022/09/25 12:08:35;;;;;;;4.40;1.23;;;28.50;60.70;;;;;;6243726;23;20024;-77
2022/09/25 12:11:10;;;;;;;13.52;4.20;;;28.10;57.00;;;;;;6246732;23;20022;-79
2022/09/25 12:13:47;;;;;;;7.35;1.20;;;28.40;58.60;;;;;;6245912;23;20499;-81
2022/09/25 12:16:22;;;;;;;4.13;0.70;;;29.50;59.60;;;;;;6247281;23;20079;-80
2022/09/25 12:18:48;;;;;;;4.18;0.60;;;29.60;56.50;;;;;;6248195;23;20028;-81
2022/09/25 12:21:30;;;;;;;3.05;0.70;;;29.70;56.50;;;;;;6247583;23;20072;-77
2022/09/25 12:24:14;;;;;;;2.20;0.57;;;30.10;55.30;;;;;;6243375;23;20059;-83
2022/09/25 12:27:07;;;;;;;3.63;0.52;;;30.30;54.20;;;;;;6216703;23;20059;-78
2022/09/25 12:29:54;;;;;;;2.22;0.47;;;31.10;54.60;;;;;;6244925;23;20267;-78
2022/09/25 12:32:37;;;;;;;2.97;0.63;;;32.10;51.20;;;;;;6242240;23;20024;-80
2022/09/25 12:35:25;;;;;;;8.38;1.38;;;31.30;50.00;;;;;;6242566;23;20028;-82
2022/09/25 12:38:02;;;;;;;3.63;0.50;;;31.30;50.40;;;;;;6215716;23;20020;-76
2022/09/25 12:40:43;;;;;;;3.50;0.70;;;30.70;51.70;;;;;;6190531;23;20464;-77
2022/09/25 12:43:27;;;;;;;3.40;0.85;;;30.40;49.80;;;;;;6242923;23;20051;-80
2022/09/25 12:45:57;;;;;;;6.60;0.80;;;30.60;51.00;;;;;;6243791;23;20512;-78
2022/09/25 12:48:36;;;;;;;5.47;0.82;;;31.10;50.80;;;;;;6243242;23;20066;-76
2022/09/25 12:51:28;;;;;;;5.38;1.23;;;31.60;49.30;;;;;;6215868;23;20456;-82
2022/09/25 12:54:22;;;;;;;5.75;1.10;;;31.30;51.50;;;;;;6178835;23;20055;-82
2022/09/25 12:57:03;;;;;;;4.65;1.02;;;31.80;50.70;;;;;;6242584;23;20028;-90
2022/09/25 12:59:43;;;;;;;6.35;1.38;;;31.60;51.00;;;;;;6243865;23;20024;-82
2022/09/25 13:02:31;;;;;;;4.95;0.80;;;32.10;49.90;;;;;;6243385;23;20459;-85
2022/09/25 13:05:06;;;;;;;3.92;0.70;;;32.70;49.30;;;;;;6244099;23;20325;-83
2022/09/25 13:08:16;;;;;;;2.88;0.73;;;32.70;48.10;;;;;;6244360;23;20020;-81
2022/09/25 13:11:00;;;;;;;8.77;0.90;;;32.60;46.30;;;;;;6217090;23;20027;-81
2022/09/25 13:17:11;;;;;;;3.72;0.60;;;32.20;46.90;;;;;;6242307;23;20027;-79
2022/09/25 13:19:37;;;;;;;8.25;4.72;;;32.20;46.70;;;;;;6242409;23;20415;-79
2022/09/25 13:22:06;;;;;;;10.52;2.22;;;31.80;45.90;;;;;;6243514;23;20381;-78
2022/09/25 13:24:51;;;;;;;3.05;0.50;;;32.60;46.40;;;;;;6242546;23;20078;-77
2022/09/25 13:27:22;;;;;;;5.55;0.60;;;33.50;46.20;;;;;;6244071;23;20330;-79
2022/09/25 13:29:55;;;;;;;2.58;0.50;;;33.00;45.10;;;;;;6218419;23;20051;-79
2022/09/25 13:32:33;;;;;;;2.17;0.50;;;33.70;44.30;;;;;;6218368;23;20024;-79
2022/09/25 13:35:04;;;;;;;4.03;0.65;;;33.70;43.80;;;;;;6249534;23;20016;-80